createdAt,value
2022-10-23T00:02:35.824Z,12.70
2022-10-23T00:06:51.536Z,12.80
2022-10-23T00:11:08.749Z,12.80
2022-10-23T00:15:24.187Z,12.80
2022-10-23T00:19:38.099Z,12.90
2022-10-23T00:23:53.300Z,12.90
2022-10-23T00:28:07.219Z,12.90
2022-10-23T00:32:21.382Z,12.90
2022-10-23T00:36:35.751Z,12.90
2022-10-23T00:40:51.567Z,12.90
2022-10-23T00:45:20.543Z,12.90
2022-10-23T00:49:34.635Z,12.90
2022-10-23T00:54:01.287Z,12.90
2022-10-23T00:58:27.957Z,12.90
2022-10-23T01:02:42.030Z,12.90
2022-10-23T01:07:04.343Z,13.00
2022-10-23T01:11:23.301Z,13.00
2022-10-23T01:15:45.579Z,13.00
2022-10-23T01:20:16.613Z,13.00
2022-10-23T01:24:40.803Z,13.00
2022-10-23T01:29:02.569Z,13.00
2022-10-23T01:33:24.075Z,12.90
2022-10-23T01:37:43.227Z,12.90
2022-10-23T01:42:04.710Z,12.90
2022-10-23T01:46:20.830Z,12.80
2022-10-23T01:50:35.852Z,12.80
2022-10-23T01:54:52.669Z,12.70
2022-10-23T01:59:10.671Z,12.70
2022-10-23T02:03:30.828Z,12.70
2022-10-23T02:07:45.465Z,12.70
2022-10-23T02:12:03.980Z,12.70
2022-10-23T02:16:24.294Z,12.70
2022-10-23T02:25:08.495Z,12.80
2022-10-23T02:29:28.365Z,12.70
2022-10-23T02:33:46.510Z,12.80
2022-10-23T02:38:02.715Z,12.70
2022-10-23T02:42:23.543Z,12.70
2022-10-23T02:46:47.328Z,12.70
2022-10-23T02:51:07.254Z,12.70
2022-10-23T02:55:35.186Z,12.70
2022-10-23T02:59:57.040Z,12.80
2022-10-23T03:04:12.580Z,12.80
2022-10-23T03:08:26.629Z,12.90
2022-10-23T03:12:42.401Z,12.90
2022-10-23T03:16:56.488Z,12.90
2022-10-23T03:21:12.256Z,12.80
2022-10-23T03:25:26.009Z,12.80
2022-10-23T03:29:41.385Z,12.70
2022-10-23T03:33:55.117Z,12.60
2022-10-23T03:38:09.061Z,12.50
2022-10-23T03:42:22.749Z,12.40
2022-10-23T03:46:37.826Z,12.30
2022-10-23T03:50:51.728Z,12.20
2022-10-23T03:55:06.495Z,12.10
2022-10-23T03:59:20.292Z,12.00
2022-10-23T04:03:36.405Z,12.00
2022-10-23T04:07:50.399Z,12.00
2022-10-23T04:12:04.236Z,12.00
2022-10-23T04:16:18.466Z,11.90
2022-10-23T04:20:33.978Z,11.90
2022-10-23T04:24:49.411Z,11.90
2022-10-23T04:29:05.701Z,11.90
2022-10-23T04:33:19.403Z,11.90
2022-10-23T04:37:37.475Z,11.80
2022-10-23T04:41:52.911Z,11.90
2022-10-23T04:46:07.800Z,11.80
2022-10-23T04:50:21.989Z,11.80
2022-10-23T04:54:55.494Z,11.80
2022-10-23T04:59:09.404Z,11.70
2022-10-23T05:03:26.351Z,11.80
2022-10-23T05:07:40.909Z,11.80
2022-10-23T05:12:10.105Z,11.80
2022-10-23T05:16:33.524Z,11.80
2022-10-23T05:20:48.694Z,11.80
2022-10-23T05:25:02.703Z,11.80
2022-10-23T05:29:23.312Z,11.80
2022-10-23T05:33:41.020Z,11.80
2022-10-23T05:37:57.191Z,11.80
2022-10-23T05:42:12.472Z,11.80
2022-10-23T05:46:28.991Z,11.80
2022-10-23T05:51:04.489Z,11.80
2022-10-23T05:55:28.430Z,11.80
2022-10-23T06:00:06.287Z,11.80
2022-10-23T06:04:30.261Z,11.80
2022-10-23T06:09:04.150Z,11.80
2022-10-23T06:13:22.810Z,11.80
2022-10-23T06:17:36.508Z,11.80
2022-10-23T06:21:52.128Z,11.80
2022-10-23T06:26:09.652Z,11.80
2022-10-23T06:30:40.709Z,11.90
2022-10-23T06:34:54.597Z,12.00
2022-10-23T06:39:10.379Z,12.10
2022-10-23T06:43:53.400Z,12.20
2022-10-23T06:48:25.828Z,12.30
2022-10-23T06:52:47.850Z,12.50
2022-10-23T06:57:05.704Z,12.60
2022-10-23T07:01:30.316Z,12.70
2022-10-23T07:05:45.105Z,12.90
2022-10-23T07:09:59.711Z,13.10
2022-10-23T07:14:36.314Z,13.30
2022-10-23T07:18:58.691Z,13.50
2022-10-23T07:23:16.277Z,14.00
2022-10-23T07:27:31.822Z,14.60
2022-10-23T07:31:50.412Z,15.10
2022-10-23T07:36:21.992Z,15.60
2022-10-23T07:40:36.111Z,15.90
2022-10-23T07:44:50.766Z,16.20
2022-10-23T07:49:05.969Z,16.50
2022-10-23T07:53:21.740Z,16.90
2022-10-23T07:57:40.149Z,16.90
2022-10-23T08:02:15.487Z,16.80
2022-10-23T08:06:31.581Z,16.70
2022-10-23T08:10:47.604Z,16.50
2022-10-23T08:15:07.701Z,16.30
2022-10-23T08:19:37.122Z,16.30
2022-10-23T08:23:55.087Z,16.20
2022-10-23T08:28:09.448Z,16.30
2022-10-23T08:32:31.359Z,16.30
2022-10-23T08:36:46.684Z,16.30
2022-10-23T08:41:02.831Z,16.40
2022-10-23T08:45:43.569Z,16.60
2022-10-23T08:50:15.737Z,16.80
2022-10-23T08:54:35.123Z,16.90
2022-10-23T08:58:54.230Z,16.90
2022-10-23T09:03:07.944Z,17.00
2022-10-23T09:07:29.580Z,17.30
2022-10-23T09:11:50.240Z,17.90
2022-10-23T09:16:15.591Z,18.60
2022-10-23T09:20:34.213Z,19.50
2022-10-23T09:24:52.976Z,20.30
2022-10-23T09:29:22.133Z,21.00
2022-10-23T09:33:37.687Z,21.60
2022-10-23T09:37:53.274Z,21.60
2022-10-23T09:42:22.942Z,21.70
2022-10-23T09:46:41.138Z,21.50
2022-10-23T09:50:58.959Z,21.30
2022-10-23T09:55:21.465Z,21.20
2022-10-23T09:59:35.915Z,21.00
2022-10-23T10:03:50.631Z,21.00
2022-10-23T10:08:16.474Z,21.40
2022-10-23T10:12:44.056Z,22.10
2022-10-23T10:17:06.699Z,22.50
2022-10-23T10:21:26.143Z,22.20
2022-10-23T10:25:52.032Z,22.00
2022-10-23T10:30:13.839Z,21.50
2022-10-23T10:34:33.852Z,21.20
2022-10-23T10:38:51.863Z,20.90
2022-10-23T10:43:21.435Z,20.80
2022-10-23T10:47:47.549Z,21.00
2022-10-23T10:52:14.360Z,21.60
2022-10-23T10:56:31.323Z,22.50
2022-10-23T11:00:50.899Z,22.80
2022-10-23T11:05:14.921Z,22.60
2022-10-23T11:09:31.138Z,22.40
2022-10-23T11:13:46.669Z,22.10
2022-10-23T11:18:10.856Z,21.80
2022-10-23T11:22:34.528Z,21.60
2022-10-23T11:27:08.314Z,21.40
2022-10-23T11:31:32.151Z,21.50
2022-10-23T11:35:58.428Z,21.80
2022-10-23T11:40:23.576Z,22.20
2022-10-23T11:44:44.093Z,22.30
2022-10-23T11:49:02.532Z,22.20
2022-10-23T11:53:28.851Z,22.20
2022-10-23T11:57:42.716Z,22.10
2022-10-23T12:01:59.427Z,22.20
2022-10-23T12:06:22.896Z,22.00
2022-10-23T12:10:46.913Z,21.80
2022-10-23T12:15:20.572Z,21.40
2022-10-23T12:19:48.754Z,21.10
2022-10-23T12:24:36.496Z,21.00
2022-10-23T12:29:00.542Z,21.10
2022-10-23T12:33:26.126Z,21.10
2022-10-23T12:37:57.241Z,21.10
2022-10-23T12:42:19.771Z,21.00
2022-10-23T12:46:37.570Z,21.10
2022-10-23T12:50:54.918Z,21.10
2022-10-23T12:55:14.707Z,21.10
2022-10-23T12:59:34.398Z,21.30
2022-10-23T13:03:50.258Z,21.30
2022-10-23T13:08:04.777Z,21.20
2022-10-23T13:12:33.769Z,21.10
2022-10-23T13:17:00.488Z,21.00
2022-10-23T13:21:21.095Z,20.80
2022-10-23T13:25:36.453Z,20.70
2022-10-23T13:29:50.151Z,20.70
2022-10-23T13:34:24.702Z,20.60
2022-10-23T13:38:43.024Z,20.70
2022-10-23T13:42:58.898Z,20.70
2022-10-23T13:47:17.040Z,20.70
2022-10-23T13:51:34.544Z,20.80
2022-10-23T13:55:56.368Z,20.80
2022-10-23T14:00:13.318Z,20.80
2022-10-23T14:04:26.984Z,20.80
2022-10-23T14:08:40.784Z,20.80
2022-10-23T14:13:12.737Z,20.70
2022-10-23T14:17:35.187Z,20.70
2022-10-23T14:21:50.035Z,20.60
2022-10-23T14:26:10.763Z,20.50
2022-10-23T14:30:35.276Z,20.40
2022-10-23T14:34:55.754Z,20.40
2022-10-23T14:39:12.528Z,20.30
2022-10-23T14:43:26.993Z,20.20
2022-10-23T14:47:56.104Z,20.10
2022-10-23T14:52:16.546Z,20.10
2022-10-23T14:56:53.276Z,20.10
2022-10-23T15:01:10.695Z,20.00
2022-10-23T15:05:25.982Z,19.90
2022-10-23T15:09:45.480Z,19.80
2022-10-23T15:14:02.265Z,19.80
2022-10-23T15:18:15.899Z,19.80
2022-10-23T15:22:33.661Z,19.60
2022-10-23T15:26:51.693Z,19.60
2022-10-23T15:31:05.817Z,19.50
2022-10-23T15:35:19.731Z,19.40
2022-10-23T15:39:38.086Z,19.40
2022-10-23T15:43:52.031Z,19.30
2022-10-23T15:48:18.781Z,19.20
2022-10-23T15:52:47.950Z,19.10
2022-10-23T15:57:05.690Z,19.10
2022-10-23T16:01:24.856Z,19.00
2022-10-23T16:05:38.814Z,19.00
2022-10-23T16:09:52.755Z,18.90
2022-10-23T16:14:15.921Z,18.90
2022-10-23T16:18:32.028Z,18.80
2022-10-23T16:22:52.399Z,18.80
2022-10-23T16:27:06.433Z,18.80
2022-10-23T16:31:25.172Z,18.70
2022-10-23T16:35:48.751Z,18.70
2022-10-23T16:40:10.658Z,18.60
2022-10-23T16:44:45.609Z,18.50
2022-10-23T16:49:04.184Z,18.50
2022-10-23T16:53:17.850Z,18.30
2022-10-23T16:57:40.389Z,18.20
2022-10-23T17:01:54.383Z,18.10
2022-10-23T17:06:21.925Z,17.90
2022-10-23T17:10:36.876Z,17.80
2022-10-23T17:14:53.288Z,17.70
2022-10-23T17:19:20.842Z,17.60
2022-10-23T17:23:42.276Z,17.50
2022-10-23T17:27:57.484Z,17.40
2022-10-23T17:32:14.442Z,17.30
2022-10-23T17:36:39.744Z,17.20
2022-10-23T17:41:00.457Z,17.10
2022-10-23T17:45:20.361Z,17.10
2022-10-23T17:49:38.765Z,17.00
2022-10-23T17:54:11.268Z,17.00
2022-10-23T17:58:44.044Z,17.00
2022-10-23T18:03:13.685Z,17.00
2022-10-23T18:07:35.805Z,16.90
2022-10-23T18:12:00.760Z,16.90
2022-10-23T18:16:24.756Z,16.90
2022-10-23T18:20:42.728Z,16.80
2022-10-23T18:24:57.270Z,16.70
2022-10-23T18:29:15.566Z,16.70
2022-10-23T18:33:47.120Z,16.60
2022-10-23T18:38:12.877Z,16.60
2022-10-23T18:42:26.796Z,16.50
2022-10-23T18:46:43.506Z,16.50
2022-10-23T18:51:03.163Z,16.50
2022-10-23T18:55:26.608Z,16.50
2022-10-23T18:59:51.439Z,16.60
2022-10-23T19:04:10.444Z,16.60
2022-10-23T19:08:32.263Z,16.60
2022-10-23T19:12:46.235Z,16.70
2022-10-23T19:17:10.733Z,16.80
2022-10-23T19:21:31.717Z,16.80
2022-10-23T19:25:52.712Z,16.90
2022-10-23T19:30:14.416Z,16.90
2022-10-23T19:34:32.506Z,16.90
2022-10-23T19:39:18.648Z,16.90
2022-10-23T19:43:45.535Z,16.90
2022-10-23T19:47:59.549Z,16.90
2022-10-23T19:52:16.618Z,16.70
2022-10-23T19:56:32.969Z,16.70
2022-10-23T20:00:51.005Z,16.70
2022-10-23T20:05:06.992Z,16.70
2022-10-23T20:09:29.668Z,16.60
2022-10-23T20:13:45.130Z,16.60
2022-10-23T20:18:01.476Z,16.60
2022-10-23T20:22:15.355Z,16.60
2022-10-23T20:26:55.357Z,16.60
2022-10-23T20:31:18.701Z,16.70
2022-10-23T20:40:17.410Z,17.00
2022-10-23T20:44:31.290Z,17.00
2022-10-23T20:48:46.158Z,17.00
2022-10-23T20:53:01.230Z,16.90
2022-10-23T20:57:19.255Z,16.90
2022-10-23T21:01:35.520Z,16.90
2022-10-23T21:05:55.170Z,16.80
2022-10-23T21:10:12.967Z,16.80
2022-10-23T21:14:27.248Z,16.70
2022-10-23T21:18:46.670Z,16.60
2022-10-23T21:23:10.682Z,16.50
2022-10-23T21:27:34.244Z,16.40
2022-10-23T21:31:57.909Z,16.30
2022-10-23T21:36:19.831Z,16.20
2022-10-23T21:40:33.570Z,16.10
2022-10-23T21:44:51.868Z,16.00
2022-10-23T21:49:31.930Z,15.90
2022-10-23T21:53:54.568Z,15.90
2022-10-23T21:58:11.510Z,15.80
2022-10-23T22:02:35.977Z,15.90
2022-10-23T22:06:54.423Z,15.80
2022-10-23T22:11:12.616Z,15.80
2022-10-23T22:15:26.523Z,15.70
2022-10-23T22:19:58.435Z,15.70
2022-10-23T22:24:17.528Z,15.70
2022-10-23T22:28:39.144Z,15.70
2022-10-23T22:32:52.926Z,15.60
2022-10-23T22:37:08.351Z,15.40
2022-10-23T22:41:22.556Z,15.20
2022-10-23T22:45:36.372Z,15.20
2022-10-23T22:49:50.070Z,15.10
2022-10-23T22:54:05.646Z,15.10
2022-10-23T22:58:19.398Z,15.20
2022-10-23T23:02:33.154Z,15.20
2022-10-23T23:06:47.307Z,15.10
2022-10-23T23:11:02.780Z,15.00
2022-10-23T23:15:16.645Z,15.00
2022-10-23T23:19:30.380Z,14.90
2022-10-23T23:23:44.093Z,14.80
2022-10-23T23:27:59.750Z,14.70
2022-10-23T23:32:13.547Z,14.70
2022-10-23T23:36:28.865Z,14.60
2022-10-23T23:40:50.835Z,14.60
2022-10-23T23:45:14.410Z,14.60
2022-10-23T23:49:28.517Z,14.60
2022-10-23T23:53:42.273Z,14.50
2022-10-23T23:57:55.986Z,14.50
